createdAt,value
2023-01-17T05:57:54.839Z,4.46
2023-01-17T06:00:57.055Z,4.51
2023-01-17T06:03:59.056Z,4.34
2023-01-17T06:07:00.925Z,4.49
2023-01-17T06:10:03.034Z,4.49
2023-01-17T06:13:14.303Z,4.46
2023-01-17T06:16:16.184Z,4.49
2023-01-17T06:19:18.066Z,4.39
2023-01-17T06:22:19.993Z,4.51
2023-01-17T06:25:21.829Z,4.40
2023-01-17T06:28:24.200Z,4.50
2023-01-17T06:31:26.663Z,4.52
2023-01-17T06:34:28.901Z,4.58
2023-01-17T06:37:30.862Z,4.71
2023-01-17T06:40:33.328Z,4.67
2023-01-17T06:43:35.507Z,4.59
2023-01-17T06:46:57.234Z,4.87
2023-01-17T06:50:01.351Z,4.92
2023-01-17T06:53:05.281Z,4.90
2023-01-17T06:56:08.453Z,4.94
2023-01-17T06:59:10.487Z,4.61
2023-01-17T07:02:12.511Z,4.64
2023-01-17T07:05:17.641Z,4.75
2023-01-17T07:08:24.425Z,4.63
2023-01-17T07:11:28.140Z,4.98
2023-01-17T07:14:32.124Z,4.82
2023-01-17T07:17:35.056Z,4.82
2023-01-17T07:20:38.414Z,4.90
2023-01-17T07:23:41.096Z,4.89
2023-01-17T07:26:43.742Z,4.77
2023-01-17T07:29:45.660Z,4.95
2023-01-17T07:32:53.228Z,4.91
2023-01-17T07:35:55.209Z,4.83
2023-01-17T07:38:57.199Z,4.87
2023-01-17T07:41:59.304Z,4.91
2023-01-17T07:45:02.177Z,4.91
2023-01-17T07:48:04.329Z,4.93
2023-01-17T07:51:06.392Z,4.84
2023-01-17T07:54:08.680Z,5.21
2023-01-17T07:57:13.432Z,5.06
2023-01-17T08:00:16.491Z,5.26
2023-01-17T08:03:19.696Z,5.24
2023-01-17T08:06:25.144Z,5.36
2023-01-17T08:09:27.101Z,5.55
2023-01-17T08:12:29.621Z,5.64
2023-01-17T08:15:31.485Z,5.60
2023-01-17T08:18:33.701Z,5.75
2023-01-17T08:21:35.549Z,5.56
2023-01-17T08:24:37.869Z,5.77
2023-01-17T08:27:40.201Z,5.60
2023-01-17T08:30:42.114Z,5.40
2023-01-17T08:33:44.311Z,5.42
2023-01-17T08:36:47.954Z,5.54
2023-01-17T08:39:50.114Z,5.58
2023-01-17T08:42:56.292Z,5.50
2023-01-17T08:45:58.300Z,5.45
2023-01-17T08:49:01.306Z,5.61
2023-01-17T08:52:03.256Z,5.70
2023-01-17T08:55:06.018Z,5.52
2023-01-17T08:58:08.454Z,5.52
2023-01-17T09:01:10.552Z,5.74
2023-01-17T09:04:13.223Z,5.63
2023-01-17T09:07:16.858Z,5.65
2023-01-17T09:10:18.968Z,5.75
2023-01-17T09:13:21.280Z,5.91
2023-01-17T09:16:23.228Z,6.07
2023-01-17T09:19:25.201Z,6.15
2023-01-17T09:22:27.299Z,6.05
2023-01-17T09:25:29.309Z,5.67
2023-01-17T09:28:31.294Z,5.83
2023-01-17T09:31:33.261Z,5.58
2023-01-17T09:34:35.209Z,5.62
2023-01-17T09:37:37.172Z,5.67
2023-01-17T09:40:45.684Z,5.49
2023-01-17T09:44:01.641Z,5.84
2023-01-17T09:47:14.107Z,6.11
2023-01-17T09:50:45.140Z,5.99
2023-01-17T09:53:47.588Z,6.40
2023-01-17T09:57:19.164Z,6.59
2023-01-17T10:00:47.917Z,6.64
2023-01-17T10:04:05.545Z,6.57
2023-01-17T10:07:21.401Z,6.51
2023-01-17T10:10:26.138Z,6.50
2023-01-17T10:13:43.889Z,6.44
2023-01-17T10:16:58.932Z,6.37
2023-01-17T10:20:20.075Z,6.39
2023-01-17T10:23:33.309Z,6.39
2023-01-17T10:26:36.718Z,6.34
2023-01-17T10:29:41.233Z,6.39
2023-01-17T10:32:49.897Z,6.40
2023-01-17T10:36:03.795Z,6.35
2023-01-17T10:39:26.372Z,6.48
2023-01-17T10:42:49.719Z,6.59
2023-01-17T10:45:54.546Z,6.61
2023-01-17T10:53:10.129Z,6.65
2023-01-17T10:56:15.472Z,6.71
2023-01-17T10:59:26.292Z,6.73
2023-01-17T11:02:36.907Z,6.63
2023-01-17T11:05:41.210Z,6.67
2023-01-17T11:09:02.216Z,6.70
2023-01-17T11:12:05.017Z,6.69
2023-01-17T11:15:09.727Z,6.85
2023-01-17T11:18:20.494Z,6.67
2023-01-17T11:21:24.608Z,6.67
2023-01-17T11:24:30.453Z,6.62
2023-01-17T11:27:35.110Z,6.70
2023-01-17T11:30:37.157Z,6.64
2023-01-17T11:33:45.506Z,6.74
2023-01-17T11:36:47.448Z,6.72
2023-01-17T11:39:49.389Z,6.62
2023-01-17T11:43:01.862Z,6.72
2023-01-17T11:46:24.493Z,6.81
2023-01-17T11:49:26.583Z,6.82
2023-01-17T11:52:39.133Z,6.77
2023-01-17T11:56:11.910Z,6.75
2023-01-17T11:59:34.734Z,6.78
2023-01-17T12:02:55.108Z,6.89
2023-01-17T12:06:13.676Z,6.85
2023-01-17T12:09:35.902Z,6.80
2023-01-17T12:13:29.155Z,6.74
2023-01-17T12:16:57.849Z,6.72
2023-01-17T12:20:06.089Z,6.87
2023-01-17T12:23:13.942Z,6.87
2023-01-17T12:26:31.123Z,6.66
2023-01-17T12:30:08.358Z,6.76
2023-01-17T12:33:37.769Z,7.08
2023-01-17T12:36:51.458Z,7.30
2023-01-17T12:40:13.607Z,7.06
2023-01-17T12:43:37.015Z,6.81
2023-01-17T12:46:50.614Z,6.82
2023-01-17T12:49:56.525Z,6.65
2023-01-17T12:53:14.661Z,6.76
2023-01-17T12:56:24.346Z,6.88
2023-01-17T13:00:00.947Z,6.96
2023-01-17T13:03:37.115Z,7.01
2023-01-17T13:07:04.477Z,6.98
2023-01-17T13:10:31.827Z,7.03
2023-01-17T13:13:35.752Z,7.02
2023-01-17T13:16:47.140Z,7.02
2023-01-17T13:19:59.351Z,7.01
2023-01-17T13:23:12.406Z,7.00
2023-01-17T13:26:24.605Z,7.01
2023-01-17T13:29:47.996Z,7.01
2023-01-17T13:33:07.163Z,6.88
2023-01-17T13:36:29.895Z,6.81
2023-01-17T13:40:18.035Z,6.83
2023-01-17T13:43:25.837Z,6.88
2023-01-17T13:46:31.374Z,6.81
2023-01-17T13:49:42.733Z,6.84
2023-01-17T13:52:44.760Z,6.67
2023-01-17T13:55:53.221Z,6.70
2023-01-17T13:58:58.540Z,6.60
2023-01-17T14:02:01.142Z,6.55
2023-01-17T14:05:09.188Z,6.55
2023-01-17T14:08:21.902Z,6.48
2023-01-17T14:11:23.933Z,6.38
2023-01-17T14:14:44.362Z,6.32
2023-01-17T14:17:52.014Z,6.20
2023-01-17T14:21:05.633Z,6.12
2023-01-17T14:24:10.610Z,5.81
2023-01-17T14:27:34.695Z,5.45
2023-01-17T14:30:59.589Z,5.43
2023-01-17T14:34:22.784Z,5.58
2023-01-17T14:37:42.133Z,5.65
2023-01-17T14:40:55.720Z,5.61
2023-01-17T14:44:37.458Z,5.52
2023-01-17T14:48:39.085Z,5.49
2023-01-17T14:52:40.740Z,5.49
2023-01-17T14:56:11.963Z,5.52
2023-01-17T14:59:17.436Z,5.59
2023-01-17T15:02:19.881Z,5.53
2023-01-17T15:05:25.385Z,5.51
2023-01-17T15:08:34.540Z,5.44
2023-01-17T15:11:36.915Z,5.48
2023-01-17T15:14:43.169Z,5.46
2023-01-17T15:18:19.457Z,5.34
2023-01-17T15:21:24.822Z,5.00
2023-01-17T15:24:34.390Z,5.10
2023-01-17T15:27:38.035Z,5.16
2023-01-17T15:31:10.915Z,4.92
2023-01-17T15:34:34.728Z,4.75
2023-01-17T15:37:40.044Z,4.77
2023-01-17T15:40:45.724Z,4.92
2023-01-17T15:43:48.080Z,5.13
2023-01-17T15:46:50.345Z,5.03
2023-01-17T15:49:52.523Z,5.07
2023-01-17T15:52:58.038Z,5.05
2023-01-17T15:56:00.828Z,5.02
2023-01-17T15:59:28.577Z,5.07
2023-01-17T16:02:43.365Z,5.15
2023-01-17T16:05:46.386Z,5.25
2023-01-17T16:08:54.544Z,5.02
2023-01-17T16:11:56.993Z,4.89
2023-01-17T16:15:11.825Z,4.88
2023-01-17T16:18:20.219Z,4.68
2023-01-17T16:21:25.905Z,4.67
2023-01-17T16:24:28.066Z,4.43
2023-01-17T16:27:29.994Z,4.61
2023-01-17T16:30:32.987Z,4.41
2023-01-17T16:33:35.269Z,4.43
2023-01-17T16:36:37.329Z,4.38
2023-01-17T16:39:39.804Z,4.40
2023-01-17T16:42:42.716Z,4.49
2023-01-17T16:45:50.502Z,4.36
2023-01-17T16:52:12.280Z,4.37
2023-01-17T16:55:16.052Z,4.30
2023-01-17T16:58:20.348Z,4.16
2023-01-17T17:01:22.967Z,4.14
2023-01-17T17:04:25.173Z,4.15
2023-01-17T17:07:27.190Z,4.11
2023-01-17T17:10:29.554Z,4.24
2023-01-17T17:13:35.131Z,4.24
2023-01-17T17:16:37.232Z,4.19
2023-01-17T17:19:39.737Z,4.24
2023-01-17T17:22:44.035Z,4.11
2023-01-17T17:25:45.944Z,4.13
2023-01-17T17:28:52.561Z,4.15
2023-01-17T17:31:54.901Z,4.19
2023-01-17T17:34:56.876Z,4.21
2023-01-17T17:37:58.961Z,4.12
2023-01-17T17:41:09.826Z,4.19
2023-01-17T17:44:12.449Z,4.14
2023-01-17T17:47:16.135Z,4.24
2023-01-17T17:50:18.481Z,4.26
2023-01-17T17:53:21.819Z,4.24
2023-01-17T17:56:24.116Z,4.21
2023-01-17T17:59:26.724Z,4.21
2023-01-17T18:02:28.889Z,4.17
2023-01-17T18:05:30.940Z,4.27
2023-01-17T18:08:33.991Z,4.29
2023-01-17T18:11:38.177Z,4.29
2023-01-17T18:14:40.402Z,4.32
2023-01-17T18:17:42.305Z,4.30
2023-01-17T18:20:44.632Z,4.36
2023-01-17T18:23:46.570Z,4.38
2023-01-17T18:26:51.748Z,4.36
2023-01-17T18:29:53.927Z,4.41
2023-01-17T18:32:56.137Z,4.33
2023-01-17T18:36:00.105Z,4.46
2023-01-17T18:39:13.357Z,4.45
2023-01-17T18:42:15.845Z,4.46
2023-01-17T18:45:18.343Z,4.48
2023-01-17T18:48:20.700Z,4.44
2023-01-17T18:51:23.285Z,4.41
2023-01-17T18:54:27.865Z,4.48
2023-01-17T20:45:28.857Z,5.56
2023-01-17T20:48:30.953Z,5.56
2023-01-17T20:51:38.443Z,5.51
2023-01-17T20:54:43.240Z,5.47
2023-01-17T20:57:45.097Z,5.48
2023-01-17T21:00:47.904Z,5.53
2023-01-17T21:03:51.748Z,5.56
2023-01-17T21:06:54.634Z,5.52
2023-01-17T21:09:57.505Z,5.56
2023-01-17T21:12:59.868Z,5.58
2023-01-17T21:16:02.519Z,5.58
2023-01-17T21:19:05.507Z,5.60
2023-01-17T21:22:07.373Z,5.55
2023-01-17T21:25:10.058Z,5.57
2023-01-17T21:28:12.092Z,5.58
2023-01-17T21:31:36.657Z,5.65
2023-01-17T21:34:38.509Z,5.71
2023-01-17T21:37:41.131Z,5.57
2023-01-17T21:40:44.092Z,5.64
2023-01-17T21:43:46.057Z,5.77
2023-01-17T21:46:48.669Z,5.73
2023-01-17T21:49:50.658Z,5.81
2023-01-17T21:52:53.037Z,6.05
2023-01-17T21:56:18.599Z,6.20
2023-01-17T21:59:20.454Z,6.11
2023-01-17T22:02:22.536Z,6.00
2023-01-17T22:05:24.382Z,6.03
2023-01-17T22:08:31.842Z,6.08
2023-01-17T22:11:36.696Z,6.17
2023-01-17T22:14:39.245Z,6.28
2023-01-17T22:17:42.365Z,6.21
2023-01-17T22:20:44.343Z,6.23
2023-01-17T22:23:50.287Z,6.18
2023-01-17T22:26:52.097Z,6.26
2023-01-17T22:29:54.202Z,6.26
2023-01-17T22:32:57.234Z,6.26
2023-01-17T22:35:59.584Z,6.31
2023-01-17T22:39:01.841Z,6.38
2023-01-17T22:42:03.930Z,6.40
2023-01-17T22:45:10.433Z,6.46
2023-01-17T22:48:12.302Z,6.44
2023-01-17T22:51:16.860Z,6.41
2023-01-17T22:54:19.550Z,6.39
2023-01-17T22:57:23.155Z,6.26
2023-01-17T23:00:25.136Z,6.18
2023-01-17T23:03:27.338Z,6.21
2023-01-17T23:06:34.313Z,6.13
2023-01-17T23:09:36.805Z,6.23
2023-01-17T23:12:39.102Z,6.25
2023-01-17T23:15:59.160Z,6.28
2023-01-17T23:19:19.701Z,6.24
2023-01-17T23:22:24.078Z,6.23
2023-01-17T23:25:25.933Z,6.26
2023-01-17T23:28:27.756Z,6.25
2023-01-17T23:31:29.669Z,6.23
2023-01-17T23:34:31.485Z,6.23
2023-01-17T23:37:51.693Z,6.31
2023-01-17T23:41:17.424Z,6.21
2023-01-17T23:44:19.312Z,6.26
2023-01-17T23:47:21.272Z,6.26
2023-01-17T23:50:23.244Z,6.27
2023-01-17T23:53:26.131Z,6.28
2023-01-17T23:56:28.053Z,6.28
2023-01-17T23:59:30.236Z,6.21
